Time;durP1;ratioP1;P1;durP2;ratioP2;P2;SDS_P1;SDS_P2;PMS_P1;PMS_P2;Temp;Humidity;BMP_temperature;BMP_pressure;BME280_temperature;BME280_humidity;BME280_pressure;Samples;Min_cycle;Max_cycle;Signal;HPM_P1;HPM_P2
2021/11/09 00:01:44;;;;;;;2.58;1.77;;;10.80;95.10;;;;;;4935235;29;20028;-89
2021/11/09 00:04:09;;;;;;;6.28;2.30;;;10.80;95.30;;;;;;4936847;29;20486;-91
2021/11/09 00:06:41;;;;;;;4.30;2.13;;;10.80;95.40;;;;;;4952853;29;20093;-91
2021/11/09 00:09:10;;;;;;;8.25;2.55;;;10.80;95.40;;;;;;4946864;28;20036;-88
2021/11/09 00:11:38;;;;;;;2.67;1.98;;;10.80;95.50;;;;;;4936281;28;20024;-89
2021/11/09 00:14:04;;;;;;;2.83;1.90;;;10.80;95.60;;;;;;4937230;28;20046;-89
2021/11/09 00:16:31;;;;;;;4.47;2.22;;;10.80;95.70;;;;;;4936246;29;20127;-87
2021/11/09 00:18:58;;;;;;;6.07;2.10;;;10.80;95.50;;;;;;4935511;28;20024;-92
2021/11/09 00:21:25;;;;;;;6.15;2.15;;;10.80;95.50;;;;;;4936313;29;20478;-89
2021/11/09 00:23:51;;;;;;;3.63;2.15;;;10.80;95.50;;;;;;4941563;28;20031;-91
2021/11/09 00:26:18;;;;;;;4.78;1.70;;;10.80;95.40;;;;;;4946102;29;20024;-90
2021/11/09 00:28:44;;;;;;;4.70;1.90;;;10.80;95.30;;;;;;4983358;28;20084;-90
2021/11/09 00:31:10;;;;;;;3.85;1.35;;;10.80;95.30;;;;;;5058124;28;20028;-91
2021/11/09 00:33:36;;;;;;;3.22;2.20;;;10.90;95.30;;;;;;5029794;28;20020;-90
2021/11/09 00:36:03;;;;;;;4.10;1.98;;;10.90;95.40;;;;;;4936348;29;20043;-89
2021/11/09 00:38:29;;;;;;;3.20;2.05;;;10.90;95.30;;;;;;4936758;28;20030;-86
2021/11/09 00:40:56;;;;;;;4.90;2.70;;;10.80;95.50;;;;;;4936385;28;20031;-86
2021/11/09 00:43:22;;;;;;;3.65;2.20;;;10.80;95.70;;;;;;4938233;28;20398;-89
2021/11/09 00:45:48;;;;;;;3.05;1.45;;;10.80;95.70;;;;;;4936883;29;20030;-87
2021/11/09 00:48:15;;;;;;;4.72;2.25;;;10.80;95.90;;;;;;4938221;29;20032;-88
2021/11/09 00:50:42;;;;;;;2.90;1.88;;;10.70;96.10;;;;;;4937796;29;20024;-90
2021/11/09 00:53:10;;;;;;;7.10;1.85;;;10.60;96.40;;;;;;4974020;28;20021;-89
2021/11/09 00:55:36;;;;;;;3.53;2.00;;;10.60;96.50;;;;;;4936793;29;20042;-88
2021/11/09 00:58:02;;;;;;;6.13;2.10;;;10.70;96.60;;;;;;4939193;29;20074;-89
2021/11/09 01:00:30;;;;;;;7.22;2.00;;;10.70;96.40;;;;;;4953938;28;20028;-92
2021/11/09 01:02:58;;;;;;;2.38;1.55;;;10.60;96.30;;;;;;4937047;28;20055;-89
2021/11/09 01:05:26;;;;;;;7.35;3.20;;;10.70;96.60;;;;;;4948363;28;20031;-90
2021/11/09 01:08:02;;;;;;;5.55;2.17;;;10.70;96.40;;;;;;4955567;29;20026;-88
2021/11/09 01:10:31;;;;;;;7.60;2.47;;;10.70;96.40;;;;;;4949250;29;20161;-90
2021/11/09 01:12:57;;;;;;;4.50;2.00;;;10.70;96.70;;;;;;4936409;28;20026;-89
2021/11/09 01:15:24;;;;;;;3.92;2.40;;;10.60;96.60;;;;;;4935909;29;20063;-89
2021/11/09 01:17:51;;;;;;;6.05;2.38;;;10.60;96.70;;;;;;4934766;28;20028;-91
2021/11/09 01:20:21;;;;;;;8.05;2.58;;;10.60;96.80;;;;;;4937261;29;20453;-91
2021/11/09 01:22:50;;;;;;;3.03;2.22;;;10.60;97.00;;;;;;4954441;28;20101;-89
2021/11/09 01:25:16;;;;;;;4.82;2.03;;;10.60;97.10;;;;;;4938629;28;20034;-92
2021/11/09 01:27:42;;;;;;;3.80;2.53;;;10.60;97.10;;;;;;4936334;29;20024;-85
2021/11/09 01:30:08;;;;;;;4.60;2.55;;;10.60;96.90;;;;;;4949585;28;20038;-89
2021/11/09 01:32:35;;;;;;;3.28;1.75;;;10.50;96.70;;;;;;4936533;28;20040;-88
2021/11/09 01:35:01;;;;;;;9.63;2.10;;;10.60;96.50;;;;;;4935438;28;20043;-90
2021/11/09 01:37:27;;;;;;;5.43;2.30;;;10.60;96.40;;;;;;4935253;29;20039;-90
2021/11/09 01:39:53;;;;;;;2.08;1.73;;;10.70;96.20;;;;;;4936165;29;20033;-89
2021/11/09 01:42:19;;;;;;;5.78;2.40;;;10.70;96.10;;;;;;4952385;29;20024;-88
2021/11/09 01:44:45;;;;;;;5.20;2.50;;;10.70;96.00;;;;;;4950399;29;20035;-85
2021/11/09 01:47:10;;;;;;;8.45;2.60;;;10.70;95.80;;;;;;4941803;28;20028;-91
2021/11/09 01:49:37;;;;;;;3.88;2.40;;;10.70;95.70;;;;;;4936318;29;20043;-89
2021/11/09 01:52:03;;;;;;;3.92;2.15;;;10.70;95.50;;;;;;4934758;28;20032;-89
2021/11/09 01:54:29;;;;;;;3.47;2.15;;;10.80;95.30;;;;;;4947469;28;20042;-90
2021/11/09 01:56:55;;;;;;;4.78;2.13;;;10.80;95.30;;;;;;4955572;29;20622;-88
2021/11/09 01:59:21;;;;;;;5.38;2.20;;;10.70;95.10;;;;;;4954435;28;20441;-89
2021/11/09 02:01:48;;;;;;;1.67;1.33;;;10.80;94.90;;;;;;4953653;28;20059;-90
2021/11/09 02:04:14;;;;;;;5.10;2.13;;;10.80;94.80;;;;;;4946786;29;20028;-86
2021/11/09 02:06:40;;;;;;;3.13;2.15;;;10.90;94.70;;;;;;4954663;28;20038;-88
2021/11/09 02:09:12;;;;;;;3.25;1.80;;;10.90;94.60;;;;;;4949016;28;20035;-89
2021/11/09 02:11:38;;;;;;;8.52;2.67;;;10.90;94.50;;;;;;4954441;28;20049;-85
2021/11/09 02:14:04;;;;;;;6.90;2.40;;;10.90;94.60;;;;;;4948954;28;20344;-86
2021/11/09 02:16:31;;;;;;;5.85;2.50;;;10.90;94.60;;;;;;4945188;28;20058;-89
2021/11/09 02:18:57;;;;;;;3.50;1.90;;;10.80;94.50;;;;;;4953523;29;20024;-89
2021/11/09 02:21:24;;;;;;;4.65;2.17;;;10.80;94.50;;;;;;4954355;29;20122;-90
2021/11/09 02:23:49;;;;;;;3.90;2.20;;;10.80;94.50;;;;;;4947966;28;20115;-89
2021/11/09 02:26:19;;;;;;;11.18;2.20;;;10.80;94.50;;;;;;4934647;28;20101;-87
2021/11/09 02:28:47;;;;;;;3.28;2.10;;;10.80;94.30;;;;;;4953300;28;20031;-89
2021/11/09 02:31:13;;;;;;;5.82;2.13;;;10.80;94.40;;;;;;4946389;29;20024;-89
2021/11/09 02:33:39;;;;;;;23.17;2.30;;;10.80;94.40;;;;;;4939876;29;20102;-86
2021/11/09 02:36:05;;;;;;;7.88;2.20;;;10.80;94.40;;;;;;4953383;29;20066;-87
2021/11/09 02:38:31;;;;;;;6.40;1.92;;;10.80;94.30;;;;;;4949428;28;20016;-86
2021/11/09 02:40:58;;;;;;;13.70;3.08;;;10.80;94.60;;;;;;4934306;29;20114;-88
2021/11/09 02:43:25;;;;;;;3.83;2.38;;;10.80;94.50;;;;;;4933726;29;20027;-90
2021/11/09 02:48:32;;;;;;;3.08;2.17;;;10.70;94.40;;;;;;4933521;29;20043;-91
2021/11/09 02:51:04;;;;;;;2.28;2.08;;;10.70;94.60;;;;;;4932894;28;20039;-88
2021/11/09 02:53:44;;;;;;;3.50;1.80;;;10.70;94.50;;;;;;4937175;29;20089;-88
2021/11/09 02:56:20;;;;;;;6.50;2.40;;;10.70;94.50;;;;;;4934155;28;20035;-86
2021/11/09 03:06:25;;;;;;;4.18;2.05;;;10.70;94.80;;;;;;4944667;29;20028;-87
2021/11/09 03:11:24;;;;;;;3.83;2.33;;;10.60;94.60;;;;;;4934876;29;20020;-88
2021/11/09 03:13:51;;;;;;;7.97;2.88;;;10.70;94.60;;;;;;4940247;29;20027;-88
2021/11/09 03:16:18;;;;;;;5.85;2.85;;;10.60;94.50;;;;;;4943828;28;20051;-88
2021/11/09 03:18:50;;;;;;;7.32;2.97;;;10.60;94.60;;;;;;4934121;29;20150;-89
2021/11/09 03:45:24;;;;;;;4.72;2.38;;;10.60;94.40;;;;;;4953596;28;20508;-89
2021/11/09 03:47:53;;;;;;;8.18;2.50;;;10.60;94.70;;;;;;4956709;28;20081;-85
2021/11/09 03:50:21;;;;;;;4.40;2.38;;;10.60;94.80;;;;;;4955606;28;20544;-88
2021/11/09 03:52:57;;;;;;;5.18;1.88;;;10.60;95.00;;;;;;4956756;28;20049;-87
2021/11/09 03:58:10;;;;;;;12.52;2.60;;;10.60;95.20;;;;;;4956083;28;20031;-89
2021/11/09 04:00:44;;;;;;;5.45;2.38;;;10.50;95.40;;;;;;4937890;29;20114;-88
2021/11/09 04:03:23;;;;;;;4.43;2.53;;;10.60;95.40;;;;;;4937317;29;20536;-89
2021/11/09 04:05:52;;;;;;;4.70;2.17;;;10.60;95.50;;;;;;4937731;29;20577;-88
2021/11/09 04:08:42;;;;;;;6.43;2.42;;;10.50;95.70;;;;;;4938472;29;20024;-87
2021/11/09 04:11:21;;;;;;;4.75;2.47;;;10.50;95.70;;;;;;4936958;28;20119;-89
2021/11/09 04:18:55;;;;;;;8.35;2.70;;;10.50;95.70;;;;;;4936840;29;20026;-90
2021/11/09 04:21:58;;;;;;;6.75;2.55;;;10.50;95.60;;;;;;4936376;29;20449;-86
2021/11/09 04:47:09;;;;;;;7.28;2.70;;;10.60;94.90;;;;;;4935322;29;20034;-86
2021/11/09 05:02:43;;;;;;;3.78;2.17;;;10.60;94.80;;;;;;4955312;29;20046;-88
2021/11/09 05:10:30;;;;;;;7.38;2.72;;;10.60;94.70;;;;;;4953703;29;20134;-85
2021/11/09 05:12:56;;;;;;;7.22;3.05;;;10.70;94.80;;;;;;4953270;28;20571;-87
2021/11/09 05:15:21;;;;;;;5.53;2.53;;;10.60;94.90;;;;;;4953423;28;20137;-84
2021/11/09 05:17:47;;;;;;;8.40;2.92;;;10.60;94.90;;;;;;4954553;28;20076;-87
2021/11/09 05:20:13;;;;;;;13.77;2.80;;;10.60;94.90;;;;;;4939897;29;20040;-88
2021/11/09 05:22:39;;;;;;;5.72;2.47;;;10.60;94.90;;;;;;4935543;28;20024;-90
2021/11/09 05:25:05;;;;;;;6.93;3.05;;;10.60;94.90;;;;;;4950771;29;20024;-89
2021/11/09 05:27:31;;;;;;;4.97;2.60;;;10.60;95.00;;;;;;4954416;28;20027;-84
2021/11/09 05:29:57;;;;;;;5.65;2.67;;;10.70;94.90;;;;;;4939781;28;20384;-86
2021/11/09 05:32:23;;;;;;;8.55;2.50;;;10.70;95.00;;;;;;4937387;29;20035;-89
2021/11/09 05:34:49;;;;;;;4.47;2.70;;;10.70;95.00;;;;;;4948817;28;20054;-85
2021/11/09 05:37:20;;;;;;;3.42;1.95;;;10.60;95.00;;;;;;4938731;29;20023;-88
2021/11/09 05:39:49;;;;;;;8.57;2.97;;;10.60;94.90;;;;;;4938470;29;20024;-88
2021/11/09 05:42:15;;;;;;;11.18;3.13;;;10.60;94.90;;;;;;4949386;29;20043;-89
2021/11/09 05:44:42;;;;;;;7.68;2.92;;;10.70;94.80;;;;;;4937895;29;20027;-86
2021/11/09 05:47:08;;;;;;;7.57;2.97;;;10.70;94.70;;;;;;4950448;28;20027;-87
2021/11/09 05:49:34;;;;;;;6.40;2.67;;;10.70;94.80;;;;;;4941452;28;20031;-89
2021/11/09 05:52:01;;;;;;;7.10;3.13;;;10.70;95.00;;;;;;4937189;29;20510;-90
2021/11/09 05:54:27;;;;;;;6.78;3.00;;;10.60;94.90;;;;;;4940994;29;20093;-88
2021/11/09 05:56:53;;;;;;;11.05;2.78;;;10.60;94.80;;;;;;4955001;28;20065;-85
2021/11/09 05:59:19;;;;;;;5.30;2.85;;;10.70;94.90;;;;;;4943337;28;20024;-85
2021/11/09 06:01:46;;;;;;;5.43;3.10;;;10.70;95.00;;;;;;4939561;29;20031;-88
2021/11/09 06:04:12;;;;;;;3.50;2.65;;;10.70;94.90;;;;;;4937478;29;20497;-86
2021/11/09 06:06:37;;;;;;;7.20;2.72;;;10.70;94.60;;;;;;4935485;28;20035;-87
2021/11/09 06:09:03;;;;;;;6.43;3.50;;;10.80;94.50;;;;;;4933425;28;20028;-85
2021/11/09 06:11:29;;;;;;;5.45;2.88;;;10.80;94.20;;;;;;4933704;28;20158;-86
2021/11/09 06:13:56;;;;;;;5.45;2.85;;;10.90;94.10;;;;;;4934722;29;20043;-86
2021/11/09 06:16:22;;;;;;;7.97;3.17;;;10.90;93.90;;;;;;4942786;29;20058;-85
2021/11/09 06:18:47;;;;;;;7.78;3.33;;;10.90;93.90;;;;;;4952882;28;20027;-88
2021/11/09 06:21:13;;;;;;;4.60;2.90;;;10.90;94.00;;;;;;4944384;28;20051;-86
2021/11/09 06:23:39;;;;;;;6.43;2.88;;;10.90;93.80;;;;;;4934079;29;20023;-86
2021/11/09 06:26:04;;;;;;;7.07;2.95;;;10.90;94.00;;;;;;4944570;29;20034;-86
2021/11/09 06:28:31;;;;;;;4.22;2.25;;;10.80;93.90;;;;;;4951081;28;20027;-83
2021/11/09 06:30:58;;;;;;;5.40;3.08;;;10.90;93.90;;;;;;4950378;28;20023;-85
2021/11/09 06:33:23;;;;;;;8.77;3.22;;;10.90;93.70;;;;;;4932255;28;20023;-80
2021/11/09 06:35:51;;;;;;;8.30;3.40;;;11.00;93.40;;;;;;4936365;29;20090;-87
2021/11/09 06:38:17;;;;;;;8.32;3.42;;;11.10;93.40;;;;;;4943105;28;20547;-84
2021/11/09 06:40:42;;;;;;;5.15;2.85;;;11.20;93.40;;;;;;4951029;28;20027;-84
2021/11/09 06:43:08;;;;;;;5.20;2.90;;;11.20;93.00;;;;;;4952795;29;20482;-85
2021/11/09 06:45:35;;;;;;;3.92;2.60;;;11.30;92.70;;;;;;4933499;28;20643;-84
2021/11/09 06:48:02;;;;;;;6.50;2.78;;;11.40;92.70;;;;;;4950198;28;20042;-90
2021/11/09 06:50:28;;;;;;;5.55;2.90;;;11.40;92.30;;;;;;4939523;28;20062;-88
2021/11/09 06:52:53;;;;;;;8.98;2.55;;;11.50;92.20;;;;;;4937591;28;20027;-88
2021/11/09 06:55:19;;;;;;;5.10;2.40;;;11.60;91.80;;;;;;4949489;29;20126;-89
2021/11/09 06:57:45;;;;;;;7.95;2.47;;;11.70;91.80;;;;;;4954915;29;20102;-87
2021/11/09 07:00:14;;;;;;;7.90;2.95;;;11.70;91.60;;;;;;4938317;28;20667;-86
2021/11/09 07:02:42;;;;;;;5.30;2.47;;;11.80;91.70;;;;;;4934599;29;20020;-83
2021/11/09 07:05:09;;;;;;;3.63;2.50;;;11.80;91.30;;;;;;4955313;28;20036;-83
2021/11/09 07:07:35;;;;;;;5.07;2.50;;;11.80;91.20;;;;;;4932472;29;20082;-81
2021/11/09 07:10:02;;;;;;;5.22;2.40;;;11.80;91.20;;;;;;4935624;29;20028;-80
2021/11/09 07:12:28;;;;;;;9.32;2.05;;;11.80;91.10;;;;;;4931545;28;20031;-81
2021/11/09 07:14:54;;;;;;;7.47;2.28;;;11.80;90.70;;;;;;4937471;29;20461;-80
2021/11/09 07:17:19;;;;;;;5.03;2.40;;;11.90;90.60;;;;;;4948856;29;20028;-80
2021/11/09 07:19:50;;;;;;;5.25;2.28;;;11.90;90.40;;;;;;4942010;29;20024;-82
2021/11/09 07:22:16;;;;;;;4.43;2.10;;;11.80;90.40;;;;;;4948647;29;20485;-79
2021/11/09 07:24:42;;;;;;;5.03;1.95;;;11.80;90.40;;;;;;4942174;28;20513;-80
2021/11/09 07:27:08;;;;;;;5.97;2.13;;;11.90;90.10;;;;;;4947195;28;20023;-82
2021/11/09 07:29:34;;;;;;;6.95;2.53;;;11.90;90.10;;;;;;4945603;28;20039;-77
2021/11/09 07:32:00;;;;;;;3.50;1.88;;;12.00;89.50;;;;;;4945795;29;20149;-80
2021/11/09 07:34:25;;;;;;;7.90;2.50;;;12.00;89.80;;;;;;4944826;28;20116;-81
2021/11/09 07:36:52;;;;;;;5.43;2.17;;;12.00;89.60;;;;;;4941130;28;20029;-82
2021/11/09 07:39:20;;;;;;;4.80;1.98;;;12.00;88.90;;;;;;4942752;28;20032;-79
2021/11/09 07:41:46;;;;;;;7.75;2.25;;;12.10;88.80;;;;;;4937853;29;20028;-77
2021/11/09 07:44:12;;;;;;;5.75;2.53;;;12.10;88.70;;;;;;4936843;28;20032;-79
2021/11/09 07:46:39;;;;;;;5.13;1.80;;;12.10;88.20;;;;;;4944818;29;20222;-82
2021/11/09 07:49:05;;;;;;;3.58;2.00;;;12.20;88.10;;;;;;4939351;28;20546;-84
2021/11/09 07:51:32;;;;;;;3.97;1.85;;;12.20;88.60;;;;;;4939882;29;20099;-80
2021/11/09 07:54:00;;;;;;;3.30;1.98;;;12.20;87.70;;;;;;4942088;28;20490;-82
2021/11/09 07:56:31;;;;;;;4.45;2.30;;;12.30;87.60;;;;;;4937401;28;20047;-80
2021/11/09 08:01:45;;;;;;;5.57;1.95;;;12.30;87.70;;;;;;4940755;29;20106;-83
2021/11/09 08:04:17;;;;;;;3.55;1.70;;;12.40;87.70;;;;;;4940156;28;20030;-82
2021/11/09 08:09:21;;;;;;;3.88;1.85;;;12.40;87.50;;;;;;4932521;29;20082;-79
2021/11/09 08:11:48;;;;;;;3.60;2.20;;;12.50;87.60;;;;;;4949669;28;20436;-81
2021/11/09 08:14:14;;;;;;;5.97;2.00;;;12.50;87.20;;;;;;4945172;28;20108;-83
2021/11/09 08:16:41;;;;;;;3.22;1.60;;;12.50;87.20;;;;;;4941760;28;20044;-83
2021/11/09 08:19:07;;;;;;;5.35;1.92;;;12.50;87.10;;;;;;4939542;28;20023;-84
2021/11/09 08:21:34;;;;;;;4.45;1.88;;;12.50;87.50;;;;;;4939044;29;20034;-86
2021/11/09 08:24:01;;;;;;;4.60;1.70;;;12.50;87.20;;;;;;4948237;29;20486;-83
2021/11/09 08:26:27;;;;;;;3.63;2.00;;;12.60;87.00;;;;;;4944112;29;20020;-87
2021/11/09 08:28:55;;;;;;;3.88;1.60;;;12.60;87.10;;;;;;4957833;28;20050;-89
2021/11/09 08:31:23;;;;;;;2.92;1.52;;;12.70;86.70;;;;;;4951764;29;20012;-90
2021/11/09 08:33:50;;;;;;;3.50;1.92;;;12.60;87.20;;;;;;4949588;29;20024;-89
2021/11/09 08:36:22;;;;;;;2.60;1.70;;;12.60;87.30;;;;;;4954013;28;20406;-89
2021/11/09 08:38:48;;;;;;;4.05;1.70;;;12.50;87.50;;;;;;4943656;28;20022;-87
2021/11/09 08:41:14;;;;;;;5.95;2.40;;;12.50;87.90;;;;;;4943814;29;20115;-85
2021/11/09 08:43:46;;;;;;;4.35;2.05;;;12.50;87.40;;;;;;4941533;29;20077;-82
2021/11/09 08:46:20;;;;;;;4.22;1.67;;;12.60;87.70;;;;;;4954923;29;20027;-83
2021/11/09 08:48:49;;;;;;;3.95;1.55;;;12.70;87.70;;;;;;4949025;28;20559;-84
2021/11/09 08:51:16;;;;;;;4.88;2.30;;;12.80;87.30;;;;;;4942208;28;20031;-82
2021/11/09 08:53:53;;;;;;;6.20;2.15;;;13.00;87.10;;;;;;4940112;29;20500;-83
2021/11/09 08:57:10;;;;;;;6.00;1.73;;;13.20;86.80;;;;;;4935719;28;20073;-84
2021/11/09 09:04:50;;;;;;;3.63;1.80;;;13.40;86.30;;;;;;4941842;29;20058;-86
2021/11/09 09:07:18;;;;;;;5.18;2.00;;;13.40;86.40;;;;;;4943047;28;20035;-86
2021/11/09 09:09:44;;;;;;;3.67;2.45;;;13.40;86.00;;;;;;4937049;28;20020;-84
2021/11/09 09:12:10;;;;;;;4.45;1.77;;;13.50;86.60;;;;;;4942560;29;20028;-87
2021/11/09 09:14:35;;;;;;;5.55;2.25;;;13.40;86.10;;;;;;4943527;29;20028;-84
2021/11/09 09:17:03;;;;;;;9.63;2.42;;;13.50;86.50;;;;;;4941028;29;20020;-87
2021/11/09 09:19:35;;;;;;;5.60;2.55;;;13.60;86.80;;;;;;4949726;28;20028;-82
2021/11/09 09:22:10;;;;;;;7.30;2.58;;;13.70;85.40;;;;;;4942153;29;20015;-85
2021/11/09 09:24:48;;;;;;;4.65;1.98;;;13.90;85.60;;;;;;4941393;29;20436;-90
2021/11/09 09:27:51;;;;;;;3.97;1.95;;;13.90;85.00;;;;;;4951376;28;20028;-92
2021/11/09 09:30:28;;;;;;;3.85;2.10;;;14.00;85.90;;;;;;4942312;28;20038;-85
2021/11/09 09:52:20;;;;;;;4.90;2.05;;;14.00;85.60;;;;;;4940249;29;20085;-80
2021/11/09 09:57:26;;;;;;;4.75;1.70;;;14.40;84.40;;;;;;4944014;29;20114;-79
2021/11/09 10:02:50;;;;;;;3.85;1.90;;;14.50;84.00;;;;;;4944014;29;20390;-82
2021/11/09 10:05:17;;;;;;;4.53;1.70;;;14.50;85.00;;;;;;4940838;28;20122;-82
2021/11/09 10:07:47;;;;;;;3.50;1.63;;;14.60;83.80;;;;;;4946324;29;20023;-84
2021/11/09 10:10:15;;;;;;;3.38;1.90;;;14.60;83.80;;;;;;4942206;28;20032;-86
2021/11/09 10:12:53;;;;;;;4.15;1.83;;;14.90;83.50;;;;;;4947113;29;20091;-86
2021/11/09 10:15:20;;;;;;;3.03;1.90;;;15.20;82.60;;;;;;4944063;29;20142;-81
2021/11/09 10:18:00;;;;;;;5.35;1.65;;;15.40;82.30;;;;;;4945088;29;20030;-78
2021/11/09 10:20:30;;;;;;;7.55;2.10;;;15.40;81.60;;;;;;4953146;28;20034;-91
2021/11/09 10:23:20;;;;;;;2.70;1.55;;;15.10;82.10;;;;;;4951849;28;20014;-89
2021/11/09 10:25:47;;;;;;;2.15;1.63;;;14.80;81.80;;;;;;4953815;28;20383;-85
2021/11/09 10:28:19;;;;;;;4.60;2.10;;;14.50;84.00;;;;;;4942855;29;20034;-90
2021/11/09 10:30:49;;;;;;;7.63;1.95;;;14.50;84.10;;;;;;4956943;28;20123;-82
2021/11/09 10:33:19;;;;;;;5.63;2.03;;;14.60;83.20;;;;;;4942690;29;20078;-82
2021/11/09 10:35:47;;;;;;;3.78;1.45;;;14.90;82.90;;;;;;4940239;29;20058;-80
2021/11/09 10:38:13;;;;;;;7.28;1.70;;;15.00;82.50;;;;;;4939628;29;20066;-81
2021/11/09 10:40:49;;;;;;;3.08;1.85;;;15.20;82.10;;;;;;4938518;28;20043;-80
2021/11/09 10:43:16;;;;;;;4.18;1.75;;;15.50;82.10;;;;;;4942517;28;20015;-80
2021/11/09 10:45:43;;;;;;;6.18;2.38;;;15.70;80.80;;;;;;4941314;29;20106;-80
2021/11/09 10:48:12;;;;;;;4.80;1.67;;;15.50;80.20;;;;;;4949040;28;20031;-77
2021/11/09 10:50:43;;;;;;;3.00;1.40;;;15.40;82.00;;;;;;4942324;29;20024;-79
2021/11/09 10:53:29;;;;;;;3.30;1.80;;;15.20;81.20;;;;;;4931604;29;20034;-78
2021/11/09 10:56:35;;;;;;;7.80;2.35;;;15.10;81.80;;;;;;4941457;29;20032;-78
2021/11/09 11:04:32;;;;;;;3.00;1.75;;;15.00;82.50;;;;;;4942559;29;20398;-78
2021/11/09 11:07:02;;;;;;;3.67;1.60;;;15.10;82.90;;;;;;4945567;29;20031;-79
2021/11/09 11:09:28;;;;;;;6.63;1.70;;;15.30;82.80;;;;;;4941480;29;20070;-81
2021/11/09 11:11:59;;;;;;;10.60;1.80;;;15.40;81.60;;;;;;4936931;28;20107;-79
2021/11/09 11:14:31;;;;;;;3.85;1.48;;;15.50;81.10;;;;;;4936503;28;20400;-80
2021/11/09 11:17:00;;;;;;;3.20;1.65;;;15.60;81.30;;;;;;4946836;29;20583;-77
2021/11/09 11:19:40;;;;;;;3.58;1.90;;;15.70;81.10;;;;;;4942617;29;20024;-79
2021/11/09 11:22:09;;;;;;;4.63;1.50;;;15.70;80.20;;;;;;4932078;28;20024;-78
2021/11/09 11:24:35;;;;;;;3.63;1.77;;;15.40;81.70;;;;;;4931287;29;20128;-80
2021/11/09 11:27:02;;;;;;;1.65;1.35;;;15.30;81.50;;;;;;4954163;28;20075;-79
2021/11/09 11:29:31;;;;;;;3.10;1.88;;;15.10;82.10;;;;;;4932707;28;20078;-79
2021/11/09 11:31:57;;;;;;;4.10;1.67;;;15.00;82.60;;;;;;4944449;28;20032;-78
2021/11/09 11:34:28;;;;;;;2.20;1.23;;;15.10;82.40;;;;;;4941184;28;20063;-78
2021/11/09 11:36:54;;;;;;;3.33;1.90;;;15.30;81.60;;;;;;4935144;29;20032;-78
2021/11/09 11:39:26;;;;;;;3.08;1.50;;;15.50;81.40;;;;;;4937038;29;20437;-80
2021/11/09 11:41:58;;;;;;;4.65;1.95;;;15.60;80.40;;;;;;4936635;29;20429;-79
2021/11/09 11:44:31;;;;;;;3.20;1.80;;;15.50;81.00;;;;;;4977801;28;20035;-80
2021/11/09 11:47:02;;;;;;;5.88;1.80;;;15.40;81.40;;;;;;4935968;29;20276;-80
2021/11/09 11:49:40;;;;;;;24.42;11.90;;;15.50;80.80;;;;;;4934813;28;20036;-78
2021/11/09 11:52:11;;;;;;;9.20;4.55;;;15.40;81.90;;;;;;4936037;29;20028;-81
2021/11/09 11:54:53;;;;;;;72.03;37.17;;;15.50;81.70;;;;;;4941555;29;20066;-77
2021/11/09 11:57:27;;;;;;;;;;;15.70;81.50;;;;;;4954681;28;20020;-82
2021/11/09 11:59:53;;;;;;;5.18;2.10;;;15.90;80.80;;;;;;4947862;28;19940;-79
2021/11/09 12:02:35;;;;;;;8.32;5.18;;;15.80;80.20;;;;;;4937927;29;20024;-79
2021/11/09 12:05:01;;;;;;;3.17;2.10;;;16.00;79.60;;;;;;4941084;28;20031;-79
2021/11/09 12:07:55;;;;;;;8.15;2.60;;;16.50;78.60;;;;;;4937716;29;20479;-87
2021/11/09 12:10:22;;;;;;;6.90;2.78;;;17.70;76.40;;;;;;4944320;28;20024;-82
2021/11/09 12:13:06;;;;;;;22.08;12.60;;;19.10;72.40;;;;;;4934978;29;20027;-83
2021/11/09 12:16:02;;;;;;;12.77;5.75;;;19.50;70.20;;;;;;4938177;29;20047;-77
2021/11/09 12:18:28;;;;;;;7.88;3.92;;;20.40;67.90;;;;;;4947401;29;20427;-77
2021/11/09 12:20:55;;;;;;;7.40;3.15;;;18.90;69.40;;;;;;4939599;29;20522;-78
2021/11/09 12:23:22;;;;;;;7.50;4.50;;;18.60;71.20;;;;;;4931081;29;20027;-75
2021/11/09 12:25:48;;;;;;;6.63;3.45;;;18.60;71.10;;;;;;4940209;28;20093;-77
2021/11/09 12:28:20;;;;;;;11.68;3.35;;;18.80;71.30;;;;;;4930413;28;20035;-77
2021/11/09 12:30:46;;;;;;;6.50;2.70;;;19.70;68.90;;;;;;4937661;28;20035;-76
2021/11/09 12:33:16;;;;;;;5.93;2.55;;;20.60;66.50;;;;;;4948282;28;20560;-76
2021/11/09 12:36:11;;;;;;;10.82;4.72;;;21.40;64.50;;;;;;4938199;29;20075;-78
2021/11/09 12:38:40;;;;;;;12.23;6.60;;;19.20;67.40;;;;;;4931908;28;20031;-82
2021/11/09 12:41:16;;;;;;;12.68;5.93;;;18.90;69.40;;;;;;4938130;28;20619;-81
2021/11/09 12:43:52;;;;;;;15.45;8.35;;;19.20;69.10;;;;;;4933485;28;20500;-79
2021/11/09 12:46:42;;;;;;;7.30;3.42;;;19.90;67.30;;;;;;4940633;29;20028;-77
2021/11/09 12:49:15;;;;;;;21.55;10.90;;;20.20;65.90;;;;;;4941706;28;20089;-79
2021/11/09 12:51:47;;;;;;;13.18;7.25;;;19.70;66.50;;;;;;4936275;28;20032;-80
2021/11/09 12:54:18;;;;;;;15.18;8.20;;;20.60;65.00;;;;;;4932937;29;20040;-78
2021/11/09 12:56:45;;;;;;;13.23;8.15;;;19.30;66.10;;;;;;4949414;29;20081;-77
2021/11/09 13:02:39;;;;;;;5.45;3.70;;;18.70;68.80;;;;;;4944567;29;20033;-79
2021/11/09 13:05:14;;;;;;;14.70;6.50;;;19.40;66.50;;;;;;4943436;28;20621;-78
2021/11/09 13:07:44;;;;;;;7.32;5.10;;;20.10;65.60;;;;;;4928810;29;20047;-77
2021/11/09 13:10:21;;;;;;;9.77;4.53;;;21.40;62.60;;;;;;4940961;29;20047;-83
2021/11/09 13:12:50;;;;;;;13.13;7.68;;;22.80;60.00;;;;;;4940638;29;20027;-78
2021/11/09 13:15:22;;;;;;;16.48;10.05;;;23.60;57.70;;;;;;4937832;28;20055;-76
2021/11/09 13:17:55;;;;;;;9.30;6.13;;;22.90;58.70;;;;;;4945265;28;20095;-76
2021/11/09 13:23:01;;;;;;;7.90;4.60;;;20.70;61.70;;;;;;4934940;29;20038;-78
2021/11/09 13:25:39;;;;;;;11.65;7.38;;;20.60;62.00;;;;;;4941130;28;20035;-78
2021/11/09 13:28:06;;;;;;;5.20;2.75;;;21.40;61.10;;;;;;4946259;29;20023;-79
2021/11/09 13:30:33;;;;;;;6.32;3.45;;;21.80;59.70;;;;;;4947117;29;20031;-77
2021/11/09 13:32:59;;;;;;;5.97;4.18;;;21.90;60.20;;;;;;4935550;29;20146;-78
2021/11/09 13:35:31;;;;;;;9.20;4.50;;;22.60;59.40;;;;;;4944489;29;20678;-79
2021/11/09 13:38:08;;;;;;;8.32;5.20;;;22.00;58.50;;;;;;4930355;29;20414;-78
2021/11/09 13:40:35;;;;;;;9.15;5.40;;;20.20;61.10;;;;;;4938523;28;20042;-78
2021/11/09 13:43:07;;;;;;;4.30;2.75;;;19.80;64.10;;;;;;4947614;28;20122;-79
2021/11/09 13:45:35;;;;;;;7.15;2.88;;;20.00;62.80;;;;;;4932203;28;20039;-78
2021/11/09 13:48:09;;;;;;;9.90;4.00;;;19.50;64.20;;;;;;4948581;28;20388;-78
2021/11/09 13:50:35;;;;;;;8.98;3.15;;;18.70;65.90;;;;;;4938979;29;20032;-78
2021/11/09 13:53:01;;;;;;;8.00;4.15;;;17.90;67.60;;;;;;4928139;28;20051;-77
2021/11/09 13:55:27;;;;;;;8.23;4.50;;;17.50;69.30;;;;;;4936720;29;20082;-78
2021/11/09 13:57:55;;;;;;;8.18;3.22;;;17.80;69.10;;;;;;4948429;29;20062;-78
2021/11/09 14:00:31;;;;;;;10.50;3.28;;;17.80;68.80;;;;;;4937452;28;20031;-78
2021/11/09 14:03:20;;;;;;;8.35;4.53;;;17.20;70.00;;;;;;4950407;28;20723;-77
2021/11/09 14:08:50;;;;;;;6.07;3.33;;;15.90;73.50;;;;;;4929171;29;20055;-77
2021/11/09 14:11:54;;;;;;;5.93;2.22;;;15.50;74.80;;;;;;4937620;29;20039;-78
2021/11/09 14:16:51;;;;;;;7.43;3.05;;;15.20;76.70;;;;;;4930807;29;20046;-78
2021/11/09 14:19:43;;;;;;;5.25;2.90;;;15.00;77.10;;;;;;4946546;28;20097;-78
2021/11/09 14:22:14;;;;;;;7.00;2.73;;;15.00;77.80;;;;;;4930403;28;20039;-77
2021/11/09 14:24:42;;;;;;;5.22;2.40;;;14.90;77.90;;;;;;4929052;29;20276;-76
2021/11/09 14:27:11;;;;;;;4.72;3.45;;;14.70;78.50;;;;;;4929077;29;20055;-76
2021/11/09 14:29:50;;;;;;;4.15;2.65;;;14.80;79.10;;;;;;4929717;29;20039;-77
2021/11/09 14:32:22;;;;;;;5.68;2.70;;;14.80;78.80;;;;;;4929215;29;20031;-79
2021/11/09 14:34:54;;;;;;;6.30;2.97;;;14.70;79.20;;;;;;4928905;29;20121;-81
2021/11/09 14:37:25;;;;;;;6.05;2.80;;;14.60;79.80;;;;;;4933151;28;20028;-77
2021/11/09 14:40:05;;;;;;;6.63;3.80;;;14.40;80.20;;;;;;4941138;29;20034;-77
2021/11/09 14:45:49;;;;;;;4.47;2.63;;;14.40;80.60;;;;;;4947349;28;20043;-78
2021/11/09 14:48:30;;;;;;;4.15;2.45;;;14.60;80.40;;;;;;4937850;29;20063;-79
2021/11/09 14:51:08;;;;;;;6.22;2.78;;;14.60;80.40;;;;;;4937317;28;20537;-79
2021/11/09 14:53:56;;;;;;;4.15;2.35;;;14.50;80.80;;;;;;4934729;29;20038;-78
2021/11/09 14:56:32;;;;;;;8.48;3.00;;;14.30;81.10;;;;;;4928507;29;20468;-82
2021/11/09 14:59:00;;;;;;;5.15;2.50;;;14.10;81.80;;;;;;4937379;29;20389;-78
2021/11/09 15:01:47;;;;;;;5.38;2.58;;;14.00;82.20;;;;;;4946490;28;20040;-78
2021/11/09 15:12:34;;;;;;;3.60;2.50;;;13.70;82.10;;;;;;4930126;29;20448;-78
2021/11/09 15:28:28;;;;;;;5.32;2.67;;;13.00;84.90;;;;;;4939250;28;20067;-80
2021/11/09 15:31:06;;;;;;;5.25;2.40;;;12.90;85.10;;;;;;4938239;28;20035;-79
2021/11/09 15:33:35;;;;;;;6.35;2.47;;;12.80;85.30;;;;;;4942577;29;20093;-77
2021/11/09 15:36:28;;;;;;;3.25;2.28;;;12.80;85.30;;;;;;4931401;29;20039;-78
2021/11/09 15:38:54;;;;;;;6.78;2.78;;;12.70;85.80;;;;;;4942326;29;20039;-79
2021/11/09 15:41:20;;;;;;;5.63;2.50;;;12.70;86.50;;;;;;4939470;28;20137;-77
2021/11/09 15:43:46;;;;;;;4.53;2.70;;;12.60;86.50;;;;;;4948979;29;20032;-80